sensor_id;sensor_type;location;lat;lon;timestamp;P1;durP1;ratioP1;P2;durP2;ratioP2
41229;SDS011;26964;50.428;19.218;2023-05-07T00:00:35;14.8;;;9.1;;
41229;SDS011;26964;50.428;19.218;2023-05-07T00:01:35;14.2;;;9.1;;
41229;SDS011;26964;50.428;19.218;2023-05-07T00:02:35;13.0;;;9.2;;
41229;SDS011;26964;50.428;19.218;2023-05-07T00:03:35;14.0;;;9.1;;
41229;SDS011;26964;50.428;19.218;2023-05-07T00:04:35;12.9;;;8.7;;
41229;SDS011;26964;50.428;19.218;2023-05-07T00:05:35;12.9;;;9.4;;
41229;SDS011;26964;50.428;19.218;2023-05-07T00:06:35;13.1;;;8.7;;
41229;SDS011;26964;50.428;19.218;2023-05-07T00:07:35;11.2;;;8.5;;
41229;SDS011;26964;50.428;19.218;2023-05-07T00:08:35;15.0;;;9.0;;
41229;SDS011;26964;50.428;19.218;2023-05-07T00:09:35;14.1;;;8.3;;
41229;SDS011;26964;50.428;19.218;2023-05-07T00:10:35;12.4;;;8.1;;
41229;SDS011;26964;50.428;19.218;2023-05-07T00:11:35;9.8;;;7.4;;
41229;SDS011;26964;50.428;19.218;2023-05-07T00:12:35;13.0;;;8.8;;
41229;SDS011;26964;50.428;19.218;2023-05-07T00:13:35;10.9;;;7.5;;
41229;SDS011;26964;50.428;19.218;2023-05-07T00:14:35;11.6;;;7.9;;
41229;SDS011;26964;50.428;19.218;2023-05-07T00:15:35;9.9;;;7.8;;
41229;SDS011;26964;50.428;19.218;2023-05-07T00:16:35;13.4;;;7.8;;
41229;SDS011;26964;50.428;19.218;2023-05-07T00:17:35;11.3;;;7.9;;
41229;SDS011;26964;50.428;19.218;2023-05-07T00:18:35;10.8;;;7.5;;
41229;SDS011;26964;50.428;19.218;2023-05-07T00:19:35;10.7;;;7.9;;
41229;SDS011;26964;50.428;19.218;2023-05-07T00:20:35;10.2;;;7.6;;
41229;SDS011;26964;50.428;19.218;2023-05-07T00:21:35;11.8;;;7.9;;
41229;SDS011;26964;50.428;19.218;2023-05-07T00:22:35;9.6;;;7.5;;
41229;SDS011;26964;50.428;19.218;2023-05-07T00:23:35;10.2;;;6.8;;
41229;SDS011;26964;50.428;19.218;2023-05-07T00:24:35;9.6;;;7.8;;
41229;SDS011;26964;50.428;19.218;2023-05-07T00:25:35;9.6;;;7.0;;
41229;SDS011;26964;50.428;19.218;2023-05-07T00:26:35;10.9;;;6.9;;
41229;SDS011;26964;50.428;19.218;2023-05-07T00:27:35;10.0;;;7.3;;
41229;SDS011;26964;50.428;19.218;2023-05-07T00:28:35;8.5;;;6.8;;
41229;SDS011;26964;50.428;19.218;2023-05-07T00:29:35;8.7;;;7.0;;
41229;SDS011;26964;50.428;19.218;2023-05-07T00:30:35;11.3;;;7.8;;
41229;SDS011;26964;50.428;19.218;2023-05-07T00:31:35;9.3;;;6.9;;
41229;SDS011;26964;50.428;19.218;2023-05-07T00:32:35;9.8;;;6.3;;
41229;SDS011;26964;50.428;19.218;2023-05-07T00:33:35;8.8;;;6.0;;
41229;SDS011;26964;50.428;19.218;2023-05-07T00:34:35;8.4;;;6.1;;
41229;SDS011;26964;50.428;19.218;2023-05-07T00:35:36;9.8;;;6.5;;
41229;SDS011;26964;50.428;19.218;2023-05-07T00:36:35;8.1;;;6.2;;
41229;SDS011;26964;50.428;19.218;2023-05-07T00:37:35;9.0;;;5.6;;
41229;SDS011;26964;50.428;19.218;2023-05-07T00:39:35;7.8;;;6.3;;
41229;SDS011;26964;50.428;19.218;2023-05-07T00:40:35;7.1;;;5.2;;
41229;SDS011;26964;50.428;19.218;2023-05-07T00:41:35;8.9;;;5.7;;
41229;SDS011;26964;50.428;19.218;2023-05-07T00:42:35;9.2;;;5.7;;
41229;SDS011;26964;50.428;19.218;2023-05-07T00:43:35;7.4;;;5.7;;
41229;SDS011;26964;50.428;19.218;2023-05-07T00:44:35;9.3;;;5.7;;
41229;SDS011;26964;50.428;19.218;2023-05-07T00:45:35;9.4;;;6.2;;
41229;SDS011;26964;50.428;19.218;2023-05-07T00:46:35;8.2;;;5.4;;
41229;SDS011;26964;50.428;19.218;2023-05-07T00:47:35;8.5;;;5.7;;
41229;SDS011;26964;50.428;19.218;2023-05-07T00:48:35;8.3;;;5.6;;
41229;SDS011;26964;50.428;19.218;2023-05-07T00:49:37;7.6;;;5.2;;
41229;SDS011;26964;50.428;19.218;2023-05-07T00:50:35;9.2;;;5.2;;
41229;SDS011;26964;50.428;19.218;2023-05-07T00:51:35;7.2;;;4.9;;
41229;SDS011;26964;50.428;19.218;2023-05-07T00:52:35;7.1;;;4.6;;
41229;SDS011;26964;50.428;19.218;2023-05-07T00:53:35;8.5;;;5.1;;
41229;SDS011;26964;50.428;19.218;2023-05-07T00:54:35;7.1;;;4.9;;
41229;SDS011;26964;50.428;19.218;2023-05-07T00:55:35;7.1;;;5.0;;
41229;SDS011;26964;50.428;19.218;2023-05-07T00:56:35;7.2;;;4.8;;
41229;SDS011;26964;50.428;19.218;2023-05-07T00:57:36;6.4;;;5.0;;
41229;SDS011;26964;50.428;19.218;2023-05-07T00:58:35;7.5;;;5.3;;
41229;SDS011;26964;50.428;19.218;2023-05-07T00:59:35;7.2;;;4.7;;
41229;SDS011;26964;50.428;19.218;2023-05-07T01:00:35;6.7;;;4.5;;
41229;SDS011;26964;50.428;19.218;2023-05-07T01:01:35;6.1;;;4.3;;
41229;SDS011;26964;50.428;19.218;2023-05-07T01:02:35;7.0;;;4.7;;
41229;SDS011;26964;50.428;19.218;2023-05-07T01:03:35;6.9;;;4.6;;
41229;SDS011;26964;50.428;19.218;2023-05-07T01:04:35;6.5;;;4.8;;
41229;SDS011;26964;50.428;19.218;2023-05-07T01:05:35;5.9;;;4.6;;
41229;SDS011;26964;50.428;19.218;2023-05-07T01:06:35;7.0;;;4.6;;
41229;SDS011;26964;50.428;19.218;2023-05-07T01:07:35;6.0;;;4.3;;
41229;SDS011;26964;50.428;19.218;2023-05-07T01:08:36;6.6;;;4.8;;
41229;SDS011;26964;50.428;19.218;2023-05-07T01:09:35;7.5;;;4.9;;
41229;SDS011;26964;50.428;19.218;2023-05-07T01:10:35;6.3;;;4.9;;
41229;SDS011;26964;50.428;19.218;2023-05-07T01:11:35;5.7;;;4.4;;
41229;SDS011;26964;50.428;19.218;2023-05-07T01:12:35;6.5;;;4.6;;
41229;SDS011;26964;50.428;19.218;2023-05-07T01:13:35;6.7;;;4.6;;
41229;SDS011;26964;50.428;19.218;2023-05-07T01:14:35;6.8;;;4.3;;
41229;SDS011;26964;50.428;19.218;2023-05-07T01:15:35;6.3;;;4.1;;
41229;SDS011;26964;50.428;19.218;2023-05-07T01:16:36;7.1;;;4.1;;
41229;SDS011;26964;50.428;19.218;2023-05-07T01:17:35;7.0;;;4.4;;
41229;SDS011;26964;50.428;19.218;2023-05-07T01:18:35;6.1;;;4.2;;
41229;SDS011;26964;50.428;19.218;2023-05-07T01:19:35;6.6;;;3.9;;
41229;SDS011;26964;50.428;19.218;2023-05-07T01:20:35;5.8;;;4.1;;
41229;SDS011;26964;50.428;19.218;2023-05-07T01:21:35;6.7;;;4.0;;
41229;SDS011;26964;50.428;19.218;2023-05-07T01:22:36;5.6;;;3.9;;
41229;SDS011;26964;50.428;19.218;2023-05-07T01:23:39;5.6;;;3.8;;
41229;SDS011;26964;50.428;19.218;2023-05-07T01:24:35;5.9;;;4.1;;
41229;SDS011;26964;50.428;19.218;2023-05-07T01:25:35;5.6;;;3.7;;
41229;SDS011;26964;50.428;19.218;2023-05-07T01:26:35;6.5;;;3.6;;
41229;SDS011;26964;50.428;19.218;2023-05-07T01:27:35;6.2;;;3.5;;
41229;SDS011;26964;50.428;19.218;2023-05-07T01:28:35;5.4;;;3.8;;
41229;SDS011;26964;50.428;19.218;2023-05-07T01:29:35;7.3;;;3.7;;
41229;SDS011;26964;50.428;19.218;2023-05-07T01:30:35;4.5;;;3.4;;
41229;SDS011;26964;50.428;19.218;2023-05-07T01:31:35;5.7;;;3.4;;
41229;SDS011;26964;50.428;19.218;2023-05-07T01:32:36;5.1;;;3.4;;
41229;SDS011;26964;50.428;19.218;2023-05-07T01:33:35;4.9;;;3.7;;
41229;SDS011;26964;50.428;19.218;2023-05-07T01:34:35;5.6;;;3.3;;
41229;SDS011;26964;50.428;19.218;2023-05-07T01:35:37;7.0;;;3.6;;
41229;SDS011;26964;50.428;19.218;2023-05-07T01:36:35;5.4;;;3.4;;
41229;SDS011;26964;50.428;19.218;2023-05-07T01:37:35;4.7;;;3.2;;
41229;SDS011;26964;50.428;19.218;2023-05-07T01:38:36;4.6;;;3.4;;
41229;SDS011;26964;50.428;19.218;2023-05-07T01:39:35;5.5;;;3.0;;
41229;SDS011;26964;50.428;19.218;2023-05-07T01:40:35;5.5;;;3.2;;
41229;SDS011;26964;50.428;19.218;2023-05-07T01:41:35;5.8;;;3.3;;
41229;SDS011;26964;50.428;19.218;2023-05-07T01:42:35;4.6;;;2.9;;
41229;SDS011;26964;50.428;19.218;2023-05-07T01:43:35;4.6;;;3.0;;
41229;SDS011;26964;50.428;19.218;2023-05-07T01:44:35;4.9;;;2.8;;
41229;SDS011;26964;50.428;19.218;2023-05-07T01:45:35;4.8;;;3.3;;
41229;SDS011;26964;50.428;19.218;2023-05-07T01:46:35;4.6;;;3.2;;
41229;SDS011;26964;50.428;19.218;2023-05-07T01:47:36;4.4;;;2.7;;
41229;SDS011;26964;50.428;19.218;2023-05-07T01:48:35;4.4;;;2.9;;
41229;SDS011;26964;50.428;19.218;2023-05-07T01:49:35;4.2;;;2.4;;
41229;SDS011;26964;50.428;19.218;2023-05-07T01:50:35;4.8;;;2.8;;
41229;SDS011;26964;50.428;19.218;2023-05-07T01:51:35;3.7;;;2.6;;
41229;SDS011;26964;50.428;19.218;2023-05-07T01:52:46;4.4;;;2.3;;
41229;SDS011;26964;50.428;19.218;2023-05-07T01:53:36;5.4;;;2.7;;
41229;SDS011;26964;50.428;19.218;2023-05-07T01:54:35;3.7;;;2.6;;
41229;SDS011;26964;50.428;19.218;2023-05-07T01:55:35;3.4;;;2.1;;
41229;SDS011;26964;50.428;19.218;2023-05-07T01:56:35;4.8;;;2.7;;
41229;SDS011;26964;50.428;19.218;2023-05-07T01:57:35;4.9;;;2.7;;
41229;SDS011;26964;50.428;19.218;2023-05-07T01:58:35;3.3;;;2.3;;
41229;SDS011;26964;50.428;19.218;2023-05-07T01:59:35;3.9;;;2.3;;
41229;SDS011;26964;50.428;19.218;2023-05-07T02:00:35;6.0;;;2.9;;
41229;SDS011;26964;50.428;19.218;2023-05-07T02:01:35;4.7;;;2.4;;
41229;SDS011;26964;50.428;19.218;2023-05-07T02:02:35;5.1;;;2.3;;
41229;SDS011;26964;50.428;19.218;2023-05-07T02:03:35;4.7;;;2.7;;
41229;SDS011;26964;50.428;19.218;2023-05-07T02:04:35;4.4;;;2.6;;
41229;SDS011;26964;50.428;19.218;2023-05-07T02:05:35;3.9;;;2.5;;
41229;SDS011;26964;50.428;19.218;2023-05-07T02:06:35;4.4;;;2.4;;
41229;SDS011;26964;50.428;19.218;2023-05-07T02:07:35;4.7;;;2.3;;
41229;SDS011;26964;50.428;19.218;2023-05-07T02:08:35;3.8;;;2.3;;
41229;SDS011;26964;50.428;19.218;2023-05-07T02:09:35;5.9;;;2.8;;
41229;SDS011;26964;50.428;19.218;2023-05-07T02:10:35;3.2;;;2.2;;
41229;SDS011;26964;50.428;19.218;2023-05-07T02:11:35;4.3;;;2.6;;
41229;SDS011;26964;50.428;19.218;2023-05-07T02:12:35;5.3;;;2.3;;
41229;SDS011;26964;50.428;19.218;2023-05-07T02:13:36;3.7;;;2.5;;
41229;SDS011;26964;50.428;19.218;2023-05-07T02:14:35;5.5;;;2.5;;
41229;SDS011;26964;50.428;19.218;2023-05-07T02:15:35;4.7;;;2.2;;
41229;SDS011;26964;50.428;19.218;2023-05-07T02:16:35;3.9;;;2.4;;
41229;SDS011;26964;50.428;19.218;2023-05-07T02:17:35;4.6;;;2.5;;
41229;SDS011;26964;50.428;19.218;2023-05-07T02:18:35;4.0;;;2.1;;
41229;SDS011;26964;50.428;19.218;2023-05-07T02:19:35;3.6;;;2.2;;
41229;SDS011;26964;50.428;19.218;2023-05-07T02:20:35;3.7;;;2.1;;
41229;SDS011;26964;50.428;19.218;2023-05-07T02:21:35;3.2;;;2.0;;
41229;SDS011;26964;50.428;19.218;2023-05-07T02:22:35;4.7;;;2.4;;
41229;SDS011;26964;50.428;19.218;2023-05-07T02:23:35;5.0;;;2.2;;
41229;SDS011;26964;50.428;19.218;2023-05-07T02:24:37;4.5;;;2.3;;
41229;SDS011;26964;50.428;19.218;2023-05-07T02:25:35;5.4;;;2.7;;
41229;SDS011;26964;50.428;19.218;2023-05-07T02:26:35;3.3;;;2.0;;
41229;SDS011;26964;50.428;19.218;2023-05-07T02:27:35;3.1;;;2.2;;
41229;SDS011;26964;50.428;19.218;2023-05-07T02:28:35;3.7;;;2.0;;
41229;SDS011;26964;50.428;19.218;2023-05-07T02:29:35;3.9;;;2.1;;
41229;SDS011;26964;50.428;19.218;2023-05-07T02:30:36;4.8;;;2.5;;
41229;SDS011;26964;50.428;19.218;2023-05-07T02:31:35;3.7;;;2.3;;
41229;SDS011;26964;50.428;19.218;2023-05-07T02:32:35;3.4;;;2.1;;
41229;SDS011;26964;50.428;19.218;2023-05-07T02:33:35;6.1;;;2.5;;
41229;SDS011;26964;50.428;19.218;2023-05-07T02:34:35;3.8;;;2.2;;
41229;SDS011;26964;50.428;19.218;2023-05-07T02:35:35;3.5;;;2.4;;
41229;SDS011;26964;50.428;19.218;2023-05-07T02:36:35;3.8;;;2.3;;
41229;SDS011;26964;50.428;19.218;2023-05-07T02:37:35;5.6;;;2.7;;
41229;SDS011;26964;50.428;19.218;2023-05-07T02:38:35;3.7;;;2.4;;
41229;SDS011;26964;50.428;19.218;2023-05-07T02:39:35;4.3;;;2.4;;
41229;SDS011;26964;50.428;19.218;2023-05-07T02:40:35;4.1;;;2.3;;
41229;SDS011;26964;50.428;19.218;2023-05-07T02:41:35;4.3;;;2.4;;
41229;SDS011;26964;50.428;19.218;2023-05-07T02:42:35;3.9;;;2.3;;
41229;SDS011;26964;50.428;19.218;2023-05-07T02:43:35;4.4;;;2.7;;
41229;SDS011;26964;50.428;19.218;2023-05-07T02:44:35;4.2;;;2.3;;
41229;SDS011;26964;50.428;19.218;2023-05-07T02:45:35;4.6;;;2.3;;
41229;SDS011;26964;50.428;19.218;2023-05-07T02:46:35;4.1;;;2.4;;
41229;SDS011;26964;50.428;19.218;2023-05-07T02:47:35;6.2;;;3.1;;
41229;SDS011;26964;50.428;19.218;2023-05-07T02:48:35;4.4;;;2.4;;
41229;SDS011;26964;50.428;19.218;2023-05-07T02:49:35;4.5;;;2.5;;
41229;SDS011;26964;50.428;19.218;2023-05-07T02:50:35;5.5;;;2.5;;
41229;SDS011;26964;50.428;19.218;2023-05-07T02:51:35;3.8;;;2.5;;
41229;SDS011;26964;50.428;19.218;2023-05-07T02:52:35;4.9;;;3.1;;
41229;SDS011;26964;50.428;19.218;2023-05-07T02:53:35;4.6;;;3.0;;
41229;SDS011;26964;50.428;19.218;2023-05-07T02:54:35;4.0;;;2.3;;
41229;SDS011;26964;50.428;19.218;2023-05-07T02:55:35;5.3;;;2.8;;
41229;SDS011;26964;50.428;19.218;2023-05-07T02:56:35;4.2;;;2.5;;
41229;SDS011;26964;50.428;19.218;2023-05-07T02:57:35;3.9;;;2.8;;
41229;SDS011;26964;50.428;19.218;2023-05-07T02:58:35;5.3;;;2.8;;
41229;SDS011;26964;50.428;19.218;2023-05-07T02:59:35;3.9;;;2.6;;
41229;SDS011;26964;50.428;19.218;2023-05-07T03:00:35;4.6;;;2.9;;
41229;SDS011;26964;50.428;19.218;2023-05-07T03:01:35;4.2;;;3.0;;
41229;SDS011;26964;50.428;19.218;2023-05-07T03:02:35;4.8;;;2.7;;
41229;SDS011;26964;50.428;19.218;2023-05-07T03:03:35;5.0;;;3.2;;
41229;SDS011;26964;50.428;19.218;2023-05-07T03:04:35;6.3;;;2.9;;
41229;SDS011;26964;50.428;19.218;2023-05-07T03:05:35;5.0;;;2.9;;
41229;SDS011;26964;50.428;19.218;2023-05-07T03:06:35;4.9;;;2.5;;
41229;SDS011;26964;50.428;19.218;2023-05-07T03:07:35;4.3;;;2.5;;
41229;SDS011;26964;50.428;19.218;2023-05-07T03:08:35;4.9;;;2.7;;
41229;SDS011;26964;50.428;19.218;2023-05-07T03:09:35;4.6;;;2.9;;
41229;SDS011;26964;50.428;19.218;2023-05-07T03:10:35;4.4;;;2.9;;
41229;SDS011;26964;50.428;19.218;2023-05-07T03:11:35;4.7;;;3.2;;
41229;SDS011;26964;50.428;19.218;2023-05-07T03:12:35;4.4;;;2.7;;
41229;SDS011;26964;50.428;19.218;2023-05-07T03:13:35;5.2;;;3.2;;
41229;SDS011;26964;50.428;19.218;2023-05-07T03:14:36;4.1;;;2.7;;
41229;SDS011;26964;50.428;19.218;2023-05-07T03:15:35;4.2;;;2.8;;
41229;SDS011;26964;50.428;19.218;2023-05-07T03:16:35;3.8;;;2.5;;
41229;SDS011;26964;50.428;19.218;2023-05-07T03:17:35;3.6;;;2.3;;
41229;SDS011;26964;50.428;19.218;2023-05-07T03:18:35;6.4;;;3.0;;
41229;SDS011;26964;50.428;19.218;2023-05-07T03:19:35;4.6;;;2.4;;
41229;SDS011;26964;50.428;19.218;2023-05-07T03:20:35;3.3;;;2.4;;
41229;SDS011;26964;50.428;19.218;2023-05-07T03:21:35;5.9;;;3.3;;
41229;SDS011;26964;50.428;19.218;2023-05-07T03:22:35;4.6;;;2.4;;
41229;SDS011;26964;50.428;19.218;2023-05-07T03:23:35;4.1;;;2.6;;
41229;SDS011;26964;50.428;19.218;2023-05-07T03:24:35;5.8;;;2.8;;
41229;SDS011;26964;50.428;19.218;2023-05-07T03:25:35;4.4;;;2.3;;
41229;SDS011;26964;50.428;19.218;2023-05-07T03:26:35;4.9;;;2.6;;
41229;SDS011;26964;50.428;19.218;2023-05-07T03:27:35;4.0;;;2.6;;
41229;SDS011;26964;50.428;19.218;2023-05-07T03:28:35;4.3;;;2.4;;
41229;SDS011;26964;50.428;19.218;2023-05-07T03:29:35;4.1;;;2.8;;
41229;SDS011;26964;50.428;19.218;2023-05-07T03:30:35;4.8;;;2.2;;
41229;SDS011;26964;50.428;19.218;2023-05-07T03:31:35;5.1;;;2.9;;
41229;SDS011;26964;50.428;19.218;2023-05-07T03:32:35;3.5;;;2.4;;
41229;SDS011;26964;50.428;19.218;2023-05-07T03:33:35;4.5;;;2.4;;
41229;SDS011;26964;50.428;19.218;2023-05-07T03:34:35;4.1;;;2.6;;
41229;SDS011;26964;50.428;19.218;2023-05-07T03:35:35;3.8;;;2.4;;
41229;SDS011;26964;50.428;19.218;2023-05-07T03:36:35;5.0;;;3.0;;
41229;SDS011;26964;50.428;19.218;2023-05-07T03:37:35;3.9;;;2.5;;
41229;SDS011;26964;50.428;19.218;2023-05-07T03:38:35;4.1;;;2.5;;
41229;SDS011;26964;50.428;19.218;2023-05-07T03:39:35;3.6;;;2.5;;
41229;SDS011;26964;50.428;19.218;2023-05-07T03:40:35;5.4;;;2.7;;
41229;SDS011;26964;50.428;19.218;2023-05-07T03:41:35;3.2;;;2.1;;
41229;SDS011;26964;50.428;19.218;2023-05-07T03:42:35;4.2;;;2.2;;
41229;SDS011;26964;50.428;19.218;2023-05-07T03:43:35;3.5;;;2.4;;
41229;SDS011;26964;50.428;19.218;2023-05-07T03:44:35;4.2;;;2.6;;
41229;SDS011;26964;50.428;19.218;2023-05-07T03:45:35;7.1;;;2.8;;
41229;SDS011;26964;50.428;19.218;2023-05-07T03:46:35;4.3;;;2.5;;
41229;SDS011;26964;50.428;19.218;2023-05-07T03:47:35;5.0;;;2.3;;
41229;SDS011;26964;50.428;19.218;2023-05-07T03:48:35;4.4;;;2.7;;
41229;SDS011;26964;50.428;19.218;2023-05-07T03:49:35;4.1;;;2.3;;
41229;SDS011;26964;50.428;19.218;2023-05-07T03:50:35;4.6;;;2.5;;
41229;SDS011;26964;50.428;19.218;2023-05-07T03:51:35;3.8;;;2.1;;
41229;SDS011;26964;50.428;19.218;2023-05-07T03:52:35;3.4;;;2.2;;
41229;SDS011;26964;50.428;19.218;2023-05-07T03:53:35;3.9;;;2.4;;
41229;SDS011;26964;50.428;19.218;2023-05-07T03:54:35;4.0;;;2.5;;
41229;SDS011;26964;50.428;19.218;2023-05-07T03:55:35;4.8;;;2.8;;
41229;SDS011;26964;50.428;19.218;2023-05-07T03:56:35;4.3;;;2.3;;
41229;SDS011;26964;50.428;19.218;2023-05-07T03:57:35;3.9;;;2.2;;
41229;SDS011;26964;50.428;19.218;2023-05-07T03:58:35;4.2;;;2.5;;
41229;SDS011;26964;50.428;19.218;2023-05-07T03:59:35;3.6;;;2.7;;
41229;SDS011;26964;50.428;19.218;2023-05-07T04:00:35;3.1;;;2.2;;
41229;SDS011;26964;50.428;19.218;2023-05-07T04:01:35;2.5;;;1.9;;
41229;SDS011;26964;50.428;19.218;2023-05-07T04:02:35;4.7;;;2.1;;
41229;SDS011;26964;50.428;19.218;2023-05-07T04:03:35;4.2;;;2.3;;
41229;SDS011;26964;50.428;19.218;2023-05-07T04:04:35;4.1;;;2.2;;
41229;SDS011;26964;50.428;19.218;2023-05-07T04:05:35;3.4;;;2.2;;
41229;SDS011;26964;50.428;19.218;2023-05-07T04:06:35;4.9;;;2.3;;
41229;SDS011;26964;50.428;19.218;2023-05-07T04:07:35;3.0;;;2.2;;
41229;SDS011;26964;50.428;19.218;2023-05-07T04:08:35;4.1;;;2.4;;
41229;SDS011;26964;50.428;19.218;2023-05-07T04:09:35;3.4;;;2.2;;
41229;SDS011;26964;50.428;19.218;2023-05-07T04:10:35;4.5;;;2.4;;
41229;SDS011;26964;50.428;19.218;2023-05-07T04:11:35;3.5;;;2.0;;
41229;SDS011;26964;50.428;19.218;2023-05-07T04:12:35;3.2;;;2.0;;
41229;SDS011;26964;50.428;19.218;2023-05-07T04:13:35;3.0;;;1.9;;
41229;SDS011;26964;50.428;19.218;2023-05-07T04:14:35;3.9;;;2.3;;
41229;SDS011;26964;50.428;19.218;2023-05-07T04:15:35;2.7;;;1.8;;
41229;SDS011;26964;50.428;19.218;2023-05-07T04:16:35;4.3;;;2.1;;
41229;SDS011;26964;50.428;19.218;2023-05-07T04:17:35;3.1;;;1.6;;
41229;SDS011;26964;50.428;19.218;2023-05-07T04:18:35;2.6;;;1.8;;
41229;SDS011;26964;50.428;19.218;2023-05-07T04:19:35;5.8;;;2.1;;
41229;SDS011;26964;50.428;19.218;2023-05-07T04:20:35;2.8;;;1.7;;
41229;SDS011;26964;50.428;19.218;2023-05-07T04:21:35;3.2;;;1.7;;
41229;SDS011;26964;50.428;19.218;2023-05-07T04:22:35;2.7;;;1.6;;
41229;SDS011;26964;50.428;19.218;2023-05-07T04:23:36;3.5;;;1.9;;
41229;SDS011;26964;50.428;19.218;2023-05-07T04:24:35;4.0;;;1.9;;
41229;SDS011;26964;50.428;19.218;2023-05-07T04:25:35;3.8;;;1.9;;
41229;SDS011;26964;50.428;19.218;2023-05-07T04:26:35;4.0;;;2.0;;
41229;SDS011;26964;50.428;19.218;2023-05-07T04:27:35;3.1;;;1.8;;
41229;SDS011;26964;50.428;19.218;2023-05-07T04:28:35;3.2;;;2.0;;
41229;SDS011;26964;50.428;19.218;2023-05-07T04:29:35;4.2;;;1.8;;
41229;SDS011;26964;50.428;19.218;2023-05-07T04:30:35;3.1;;;1.5;;
41229;SDS011;26964;50.428;19.218;2023-05-07T04:31:35;4.6;;;2.1;;
41229;SDS011;26964;50.428;19.218;2023-05-07T04:32:35;4.5;;;2.3;;
41229;SDS011;26964;50.428;19.218;2023-05-07T04:33:35;3.1;;;2.0;;
41229;SDS011;26964;50.428;19.218;2023-05-07T04:34:35;4.1;;;2.0;;
41229;SDS011;26964;50.428;19.218;2023-05-07T04:35:35;3.4;;;2.0;;
41229;SDS011;26964;50.428;19.218;2023-05-07T04:36:35;3.9;;;2.3;;
41229;SDS011;26964;50.428;19.218;2023-05-07T04:37:35;4.0;;;1.9;;
41229;SDS011;26964;50.428;19.218;2023-05-07T04:38:35;3.0;;;1.8;;
41229;SDS011;26964;50.428;19.218;2023-05-07T04:39:35;3.0;;;1.8;;
41229;SDS011;26964;50.428;19.218;2023-05-07T04:40:35;3.8;;;2.0;;
41229;SDS011;26964;50.428;19.218;2023-05-07T04:41:35;2.8;;;1.7;;
41229;SDS011;26964;50.428;19.218;2023-05-07T04:42:35;3.0;;;1.8;;
41229;SDS011;26964;50.428;19.218;2023-05-07T04:43:35;2.8;;;1.9;;
41229;SDS011;26964;50.428;19.218;2023-05-07T04:44:35;2.6;;;1.9;;
41229;SDS011;26964;50.428;19.218;2023-05-07T04:45:35;4.2;;;2.1;;
41229;SDS011;26964;50.428;19.218;2023-05-07T04:46:35;3.6;;;1.8;;
41229;SDS011;26964;50.428;19.218;2023-05-07T04:47:35;3.4;;;1.7;;
41229;SDS011;26964;50.428;19.218;2023-05-07T04:48:35;3.0;;;1.8;;
41229;SDS011;26964;50.428;19.218;2023-05-07T04:49:35;3.5;;;1.8;;
41229;SDS011;26964;50.428;19.218;2023-05-07T04:50:35;2.6;;;1.9;;
41229;SDS011;26964;50.428;19.218;2023-05-07T04:51:35;2.9;;;1.9;;
41229;SDS011;26964;50.428;19.218;2023-05-07T04:52:35;2.7;;;1.6;;
41229;SDS011;26964;50.428;19.218;2023-05-07T04:53:35;4.7;;;2.0;;
41229;SDS011;26964;50.428;19.218;2023-05-07T04:54:35;3.3;;;1.8;;
41229;SDS011;26964;50.428;19.218;2023-05-07T04:55:35;2.4;;;1.7;;
41229;SDS011;26964;50.428;19.218;2023-05-07T04:56:35;2.4;;;1.5;;
41229;SDS011;26964;50.428;19.218;2023-05-07T04:57:35;2.6;;;1.9;;
41229;SDS011;26964;50.428;19.218;2023-05-07T04:58:35;3.0;;;1.6;;
41229;SDS011;26964;50.428;19.218;2023-05-07T04:59:35;2.3;;;1.6;;
41229;SDS011;26964;50.428;19.218;2023-05-07T05:00:35;3.9;;;1.7;;
41229;SDS011;26964;50.428;19.218;2023-05-07T05:01:35;2.1;;;1.5;;
41229;SDS011;26964;50.428;19.218;2023-05-07T05:02:35;2.9;;;1.9;;
41229;SDS011;26964;50.428;19.218;2023-05-07T05:03:35;2.5;;;1.5;;
41229;SDS011;26964;50.428;19.218;2023-05-07T05:04:35;2.4;;;1.5;;
41229;SDS011;26964;50.428;19.218;2023-05-07T05:05:35;2.6;;;1.6;;
41229;SDS011;26964;50.428;19.218;2023-05-07T05:06:35;2.7;;;1.9;;
41229;SDS011;26964;50.428;19.218;2023-05-07T05:07:35;2.0;;;1.3;;
41229;SDS011;26964;50.428;19.218;2023-05-07T05:08:35;2.0;;;1.4;;
41229;SDS011;26964;50.428;19.218;2023-05-07T05:09:35;3.0;;;1.9;;
41229;SDS011;26964;50.428;19.218;2023-05-07T05:10:35;4.0;;;2.0;;
41229;SDS011;26964;50.428;19.218;2023-05-07T05:11:35;3.0;;;1.8;;
41229;SDS011;26964;50.428;19.218;2023-05-07T05:12:35;2.5;;;1.7;;
41229;SDS011;26964;50.428;19.218;2023-05-07T05:13:35;4.1;;;1.6;;
41229;SDS011;26964;50.428;19.218;2023-05-07T05:14:35;3.0;;;2.0;;
41229;SDS011;26964;50.428;19.218;2023-05-07T05:15:35;2.2;;;1.6;;
41229;SDS011;26964;50.428;19.218;2023-05-07T05:16:35;6.0;;;2.0;;
41229;SDS011;26964;50.428;19.218;2023-05-07T05:17:35;2.2;;;1.6;;
41229;SDS011;26964;50.428;19.218;2023-05-07T05:18:35;3.6;;;1.9;;
41229;SDS011;26964;50.428;19.218;2023-05-07T05:19:35;2.5;;;1.8;;
41229;SDS011;26964;50.428;19.218;2023-05-07T05:20:35;5.0;;;2.3;;
41229;SDS011;26964;50.428;19.218;2023-05-07T05:21:35;3.3;;;2.0;;
41229;SDS011;26964;50.428;19.218;2023-05-07T05:22:35;3.0;;;1.9;;
41229;SDS011;26964;50.428;19.218;2023-05-07T05:23:35;2.6;;;2.0;;
41229;SDS011;26964;50.428;19.218;2023-05-07T05:24:35;3.2;;;2.0;;
41229;SDS011;26964;50.428;19.218;2023-05-07T05:25:35;3.4;;;2.3;;
41229;SDS011;26964;50.428;19.218;2023-05-07T05:26:35;3.3;;;2.3;;
41229;SDS011;26964;50.428;19.218;2023-05-07T05:27:35;4.2;;;2.4;;
41229;SDS011;26964;50.428;19.218;2023-05-07T05:28:35;4.1;;;2.4;;
41229;SDS011;26964;50.428;19.218;2023-05-07T05:29:35;3.1;;;2.3;;
41229;SDS011;26964;50.428;19.218;2023-05-07T05:30:35;3.4;;;2.2;;
41229;SDS011;26964;50.428;19.218;2023-05-07T05:31:35;3.6;;;2.7;;
41229;SDS011;26964;50.428;19.218;2023-05-07T05:32:35;3.9;;;2.5;;
41229;SDS011;26964;50.428;19.218;2023-05-07T05:33:35;4.8;;;2.3;;
41229;SDS011;26964;50.428;19.218;2023-05-07T05:34:35;3.7;;;2.4;;
41229;SDS011;26964;50.428;19.218;2023-05-07T05:35:35;6.6;;;2.9;;
41229;SDS011;26964;50.428;19.218;2023-05-07T05:36:35;3.3;;;2.5;;
41229;SDS011;26964;50.428;19.218;2023-05-07T05:38:35;2.8;;;2.1;;
41229;SDS011;26964;50.428;19.218;2023-05-07T05:39:36;3.3;;;2.3;;
41229;SDS011;26964;50.428;19.218;2023-05-07T05:40:35;3.2;;;2.2;;
41229;SDS011;26964;50.428;19.218;2023-05-07T05:41:35;4.0;;;2.7;;
41229;SDS011;26964;50.428;19.218;2023-05-07T05:42:35;4.5;;;2.6;;
41229;SDS011;26964;50.428;19.218;2023-05-07T05:43:35;4.7;;;2.9;;
41229;SDS011;26964;50.428;19.218;2023-05-07T05:44:35;4.6;;;3.0;;
41229;SDS011;26964;50.428;19.218;2023-05-07T05:45:35;5.3;;;2.9;;
41229;SDS011;26964;50.428;19.218;2023-05-07T05:46:35;3.7;;;2.8;;
41229;SDS011;26964;50.428;19.218;2023-05-07T05:47:35;3.5;;;2.5;;
41229;SDS011;26964;50.428;19.218;2023-05-07T05:48:35;3.9;;;2.8;;
41229;SDS011;26964;50.428;19.218;2023-05-07T05:49:35;4.6;;;2.7;;
41229;SDS011;26964;50.428;19.218;2023-05-07T05:50:35;3.5;;;2.4;;
41229;SDS011;26964;50.428;19.218;2023-05-07T05:51:35;4.1;;;2.8;;
41229;SDS011;26964;50.428;19.218;2023-05-07T05:52:35;3.3;;;2.4;;
41229;SDS011;26964;50.428;19.218;2023-05-07T05:53:35;4.6;;;3.0;;
41229;SDS011;26964;50.428;19.218;2023-05-07T05:54:35;3.6;;;2.6;;
41229;SDS011;26964;50.428;19.218;2023-05-07T05:55:35;3.7;;;2.4;;
41229;SDS011;26964;50.428;19.218;2023-05-07T05:56:36;3.9;;;2.8;;
41229;SDS011;26964;50.428;19.218;2023-05-07T05:57:35;3.3;;;2.6;;
41229;SDS011;26964;50.428;19.218;2023-05-07T05:58:35;4.1;;;2.6;;
41229;SDS011;26964;50.428;19.218;2023-05-07T05:59:35;4.1;;;2.7;;
41229;SDS011;26964;50.428;19.218;2023-05-07T06:00:35;4.2;;;2.7;;
41229;SDS011;26964;50.428;19.218;2023-05-07T06:01:35;7.6;;;3.1;;
41229;SDS011;26964;50.428;19.218;2023-05-07T06:02:35;2.9;;;2.1;;
41229;SDS011;26964;50.428;19.218;2023-05-07T06:03:35;3.3;;;2.4;;
41229;SDS011;26964;50.428;19.218;2023-05-07T06:04:35;4.1;;;2.8;;
41229;SDS011;26964;50.428;19.218;2023-05-07T06:05:35;3.4;;;2.4;;
41229;SDS011;26964;50.428;19.218;2023-05-07T06:06:35;4.7;;;2.4;;
41229;SDS011;26964;50.428;19.218;2023-05-07T06:07:35;4.6;;;3.0;;
41229;SDS011;26964;50.428;19.218;2023-05-07T06:08:35;4.5;;;2.6;;